Chicago Lansing, IL

12:25 AM CST on February 25, 2018 (GMT -0600)
Lansing Municipal

Weather History for KIGQ - February, 2014

Change the Weather History Date:

Saturday, February 22, 2014

  Actual Average (KGYY) Record (KGYY)
Temperature  
Mean Temperature 29 °F -  
Max Temperature 34 °F 37 °F 66 °F (2017)
Min Temperature 24 °F 21 °F -9 °F (1963)
Degree Days  
Heating Degree Days 36    
Moisture  
Dew Point 14 °F    
Average Humidity 54    
Maximum Humidity 69    
Minimum Humidity 36    
Precipitation  
Precipitation 0.00 in - - ()
Sea Level Pressure  
Sea Level Pressure 29.98 in    
Wind  
Wind Speed 10 mph (WSW)    
Max Wind Speed 15 mph    
Max Gust Speed 18 mph    
Visibility 10 miles    
Events      
Averages and records for this station are not official NWS values.
T = Trace of Precipitation, MM = Missing Value Source: NWS Daily Summary

Daily Weather History Graph

Daily Weather History Graph

Search for Another Location

Airport or City:

Trip Planner

Search our weather history database for the weather conditions in past years. The results will help you decide how hot, cold, wet, or windy it might be!

Date:

Astronomy

Feb. 22, 2014 Rise Set
Actual Time 6:35 AM CST 5:32 PM CST
Civil Twilight 6:07 AM CST 6:00 PM CST
Nautical Twilight 5:35 AM CST 6:32 PM CST
Astronomical Twilight 5:03 AM CST 7:04 PM CST
Moon 12:32 AM CST (2/22) 10:41 AM CST (2/22)
Length of Visible Light 11h 53m
Length of Day
10h 57m
Waning Gibbous, 50% of the Moon is Illuminated
Feb 22
Waning Gibbous
Mar 1
New
Mar 8
First Quarter
Mar 16
Full
Mar 23
Last Quarter

Hourly Weather History & Observations

Time (CST) Temp. Windchill Dew Point Humidity Pressure Visibility Wind Dir Wind Speed Gust Speed Precip Events Conditions
12:15 AM 30.7 °F 20.4 °F 6.8 °F 36% 29.84 in 10.0 mi West 13.8 mph 18.4 mph N/A   Overcast
12:35 AM 29.3 °F 20.2 °F 9.3 °F 43% 29.85 in 10.0 mi West 10.4 mph - N/A   Scattered Clouds
12:55 AM 28.6 °F 18.7 °F 9.9 °F 46% 29.85 in 10.0 mi West 11.5 mph - N/A   Clear
1:15 AM 28.0 °F 18.6 °F 10.6 °F 48% 29.86 in 10.0 mi West 10.4 mph - N/A   Clear
1:35 AM 28.0 °F 18.1 °F 10.9 °F 49% 29.86 in 10.0 mi West 11.5 mph - N/A   Clear
1:55 AM 27.5 °F 18.0 °F 11.3 °F 51% 29.86 in 10.0 mi West 10.4 mph - N/A   Clear
2:15 AM 27.5 °F 17.4 °F 12.0 °F 52% 29.86 in 10.0 mi West 11.5 mph 16.1 mph N/A   Clear
2:35 AM 27.1 °F 16.4 °F 13.1 °F 56% 29.87 in 10.0 mi West 12.7 mph - N/A   Clear
2:55 AM 27.0 °F 16.7 °F 13.6 °F 57% 29.87 in 10.0 mi West 11.5 mph - N/A   Clear
3:15 AM 26.8 °F 17.1 °F 14.4 °F 60% 29.88 in 10.0 mi West 10.4 mph - N/A   Clear
3:35 AM 26.6 °F 16.2 °F 15.1 °F 62% 29.90 in 10.0 mi WSW 11.5 mph - N/A   Clear
3:55 AM 26.6 °F 18.2 °F 14.5 °F 60% 29.89 in 10.0 mi West 8.1 mph 18.4 mph N/A   Clear
4:15 AM 25.7 °F 15.1 °F 15.1 °F 64% 29.90 in 10.0 mi WSW 11.5 mph - N/A   Clear
4:35 AM 26.2 °F 16.4 °F 15.3 °F 63% 29.92 in 10.0 mi WSW 10.4 mph - N/A   Clear
4:55 AM 26.1 °F 15.6 °F 14.2 °F 61% 29.92 in 10.0 mi West 11.5 mph - N/A   Clear
5:15 AM 25.3 °F 16.7 °F 14.5 °F 64% 29.93 in 10.0 mi West 8.1 mph - N/A   Clear
5:35 AM 24.6 °F 16.7 °F 14.9 °F 67% 29.94 in 10.0 mi WSW 6.9 mph - N/A   Clear
5:55 AM 24.4 °F 14.9 °F 15.6 °F 69% 29.96 in 10.0 mi WSW 9.2 mph - N/A   Clear
6:15 AM 24.8 °F 15.3 °F 15.3 °F 67% 29.96 in 10.0 mi WSW 9.2 mph - N/A   Clear
6:35 AM 24.8 °F 14.0 °F 13.8 °F 63% 29.96 in 10.0 mi WSW 11.5 mph - N/A   Clear
6:55 AM 25.3 °F 16.0 °F 11.3 °F 55% 29.96 in 10.0 mi WSW 9.2 mph - N/A   Clear
7:15 AM 25.7 °F 15.1 °F 12.7 °F 58% 29.97 in 10.0 mi West 11.5 mph - N/A   Clear
7:35 AM 26.4 °F 16.0 °F 13.6 °F 59% 29.97 in 10.0 mi West 11.5 mph - N/A   Clear
7:55 AM 27.1 °F 15.9 °F 13.1 °F 56% 29.99 in 10.0 mi West 13.8 mph - N/A   Clear
8:15 AM 28.0 °F 17.5 °F 12.6 °F 52% 30.00 in 10.0 mi West 12.7 mph 18.4 mph N/A   Mostly Cloudy
8:35 AM 27.9 °F 19.1 °F 12.7 °F 53% 30.01 in 10.0 mi West 9.2 mph - N/A   Mostly Cloudy
8:55 AM 28.8 °F 20.2 °F 12.0 °F 50% 30.01 in 10.0 mi WSW 9.2 mph 18.4 mph N/A   Overcast
9:15 AM 29.7 °F 19.6 °F 10.9 °F 46% 30.01 in 10.0 mi West 12.7 mph - N/A   Scattered Clouds
9:35 AM 30.0 °F 20.5 °F 12.0 °F 47% 30.02 in 10.0 mi SW 11.5 mph - N/A   Clear
9:55 AM 30.9 °F 22.8 °F 12.2 °F 46% 30.02 in 10.0 mi WSW 9.2 mph - N/A   Mostly Cloudy
10:15 AM 31.1 °F 22.4 °F 12.7 °F 47% 30.02 in 10.0 mi SW 10.4 mph - N/A   Overcast
10:35 AM 32.0 °F 22.1 °F 11.7 °F 43% 30.02 in 10.0 mi WSW 13.8 mph - N/A   Overcast
10:55 AM 32.4 °F 24.0 °F 13.1 °F 45% 30.02 in 10.0 mi WSW 10.4 mph - N/A   Overcast
11:15 AM 32.9 °F 24.7 °F 14.5 °F 47% 30.02 in 10.0 mi West 10.4 mph - N/A   Mostly Cloudy
11:35 AM 33.1 °F 26.1 °F 14.9 °F 47% 30.02 in 10.0 mi West 8.1 mph 16.1 mph N/A   Scattered Clouds
11:55 AM 33.1 °F 26.9 °F 14.5 °F 47% 30.01 in 10.0 mi WSW 6.9 mph - N/A   Clear
12:15 PM 34.2 °F 26.8 °F 15.1 °F 46% 30.01 in 10.0 mi WSW 9.2 mph - N/A   Clear
12:35 PM 34.3 °F 25.0 °F 13.5 °F 42% 30.00 in 10.0 mi West 13.8 mph - N/A   Scattered Clouds
12:55 PM 34.7 °F 25.1 °F 10.9 °F 37% 30.00 in 10.0 mi West 15.0 mph - N/A   Mostly Cloudy
1:15 PM 34.7 °F 27.5 °F 17.1 °F 49% 30.00 in 10.0 mi SW 9.2 mph - N/A   Mostly Cloudy
1:35 PM 34.2 °F 24.8 °F 17.1 °F 50% 30.00 in 10.0 mi SW 13.8 mph - N/A   Scattered Clouds
1:55 PM 33.8 °F 24.8 °F 13.3 °F 43% 29.99 in 10.0 mi WSW 12.7 mph - N/A   Scattered Clouds
2:15 PM 34.3 °F 25.5 °F 12.9 °F 41% 29.99 in 10.0 mi WSW 12.7 mph - N/A   Scattered Clouds
2:35 PM 34.2 °F 25.7 °F 14.7 °F 45% 29.99 in 10.0 mi West 11.5 mph - N/A   Scattered Clouds
2:55 PM 34.0 °F 26.0 °F 15.6 °F 47% 29.99 in 10.0 mi WSW 10.4 mph - N/A   Scattered Clouds
3:15 PM 33.8 °F 26.4 °F 14.4 °F 45% 29.99 in 10.0 mi West 9.2 mph - N/A   Mostly Cloudy
3:35 PM 33.8 °F 27.0 °F 14.5 °F 45% 29.99 in 10.0 mi WSW 8.1 mph - N/A   Mostly Cloudy
3:55 PM 33.8 °F 27.0 °F 14.9 °F 46% 29.99 in 10.0 mi WSW 8.1 mph - N/A   Mostly Cloudy
4:15 PM 33.8 °F 27.7 °F 14.2 °F 45% 29.98 in 10.0 mi West 6.9 mph - N/A   Mostly Cloudy
4:35 PM 33.6 °F 26.8 °F 16.2 °F 49% 29.98 in 10.0 mi WSW 8.1 mph - N/A   Mostly Cloudy
4:55 PM 33.3 °F 27.1 °F 16.3 °F 50% 29.98 in 10.0 mi West 6.9 mph - N/A   Overcast
5:15 PM 32.9 °F 27.5 °F 17.6 °F 53% 29.99 in 10.0 mi SW 5.8 mph - N/A   Mostly Cloudy
5:35 PM 32.4 °F 26.0 °F 16.9 °F 53% 30.00 in 10.0 mi SW 6.9 mph - N/A   Scattered Clouds
5:55 PM 32.0 °F 26.4 °F 16.7 °F 53% 30.00 in 10.0 mi WSW 5.8 mph - N/A   Mostly Cloudy
6:15 PM 31.6 °F 26.0 °F 17.2 °F 55% 30.01 in 10.0 mi WSW 5.8 mph - N/A   Mostly Cloudy
6:35 PM 31.5 °F 25.8 °F 17.4 °F 56% 30.02 in 10.0 mi WSW 5.8 mph - N/A   Mostly Cloudy
6:55 PM 30.6 °F 25.8 °F 17.4 °F 58% 30.02 in 10.0 mi West 4.6 mph - N/A   Mostly Cloudy
7:15 PM 30.4 °F 26.9 °F 17.6 °F 59% 30.03 in 10.0 mi WSW 3.5 mph - N/A   Scattered Clouds
7:35 PM 30.0 °F 24.1 °F 18.3 °F 62% 30.03 in 10.0 mi SW 5.8 mph - N/A   Scattered Clouds
7:55 PM 29.3 °F 23.2 °F 18.9 °F 65% 30.04 in 10.0 mi WSW 5.8 mph - N/A   Scattered Clouds
8:15 PM 29.1 °F 24.1 °F 18.7 °F 65% 30.04 in 10.0 mi WSW 4.6 mph - N/A   Scattered Clouds
8:35 PM 28.4 °F 22.2 °F 18.7 °F 67% 30.05 in 10.0 mi WSW 5.8 mph - N/A   Scattered Clouds
8:55 PM 28.4 °F 22.2 °F 18.5 °F 66% 30.05 in 10.0 mi West 5.8 mph - N/A   Scattered Clouds
9:15 PM 28.4 °F 22.2 °F 18.7 °F 67% 30.05 in 10.0 mi West 5.8 mph - N/A   Scattered Clouds
9:35 PM 28.8 °F 22.6 °F 16.9 °F 61% 30.04 in 10.0 mi WNW 5.8 mph - N/A   Scattered Clouds
9:55 PM 28.4 °F 20.4 °F 17.1 °F 63% 30.04 in 10.0 mi WNW 8.1 mph - N/A   Scattered Clouds
10:15 PM 28.4 °F 21.2 °F 16.7 °F 62% 30.04 in 10.0 mi NW 6.9 mph - N/A   Scattered Clouds
10:35 PM 28.4 °F 21.2 °F 15.6 °F 59% 30.03 in 10.0 mi NW 6.9 mph - N/A   Scattered Clouds
10:55 PM 28.4 °F 20.4 °F 14.2 °F 55% 30.03 in 10.0 mi NW 8.1 mph - N/A   Clear
11:15 PM 28.0 °F 21.7 °F 14.2 °F 56% 30.03 in 10.0 mi NW 5.8 mph - N/A   Clear
11:35 PM 27.5 °F 19.3 °F 12.6 °F 54% 30.04 in 10.0 mi NW 8.1 mph - N/A   Clear
11:55 PM 26.6 °F 21.2 °F 12.0 °F 54% 30.04 in 10.0 mi WNW 4.6 mph - N/A   Clear